Terminal Aerodrome Forecast
Issued by NWS

Home | Current Version | Previous Version | Text Only | Print | Product List | Glossary On
Versions: 1 2 3 4 5 6 7 8 9 10 11 12 13 14
000
FTUS44 KCRP 221133
TAFLRD
TAF
KLRD 221133Z 2212/2312 33013KT P6SM FEW040
     FM221500 34015G22KT P6SM SCT030
     FM221900 34012KT P6SM SKC=

USA.gov is the U.S. government's official web portal to all federal, state and local government web resources and services.